This is the latest recevied weather packets stored in our database for station/object OM8AGG-10. If no packets are shown the sender has not sent any weather packets the latest 10 day(s).
| Time | Temp. | Humidity | Pressure | Rain* | Wind** | Luminosity | Snow |
|---|---|---|---|---|---|---|---|
| 1777685671 | 5° C | 86% | 1026.4 hPa | - | - | - | - |
| 1777684771 | 5° C | 88% | 1026.4 hPa | - | - | - | - |
| 1777683871 | 5° C | 90% | 1026.4 hPa | - | - | - | - |
| 1777682971 | 5.56° C | 87% | 1026.4 hPa | - | - | - | - |
| 1777682071 | 5.56° C | 86% | 1026.4 hPa | - | - | - | - |
| 1777681171 | 5.56° C | 85% | 1026.4 hPa | - | - | - | - |
| 1777680271 | 5.56° C | 85% | 1026.5 hPa | - | - | - | - |
| 1777679371 | 5.56° C | 86% | 1026.6 hPa | - | - | - | - |
| 1777677570 | 5.56° C | 84% | 1026.6 hPa | - | - | - | - |
| 1777676670 | 5° C | 86% | 1026.7 hPa | - | - | - | - |
| 1777675770 | 4.44° C | 87% | 1026.6 hPa | - | - | - | - |
| 1777674870 | 3.89° C | 88% | 1026.6 hPa | - | - | - | - |
| 1777673971 | 3.89° C | 87% | 1026.7 hPa | - | - | - | - |
| 1777673070 | 4.44° C | 83% | 1026.6 hPa | - | - | - | - |
| 1777672170 | 5° C | 82% | 1026.6 hPa | - | - | - | - |
| 1777671270 | 4.44° C | 83% | 1026.5 hPa | - | - | - | - |
| 1777670370 | 3.89° C | 87% | 1026.6 hPa | - | - | - | - |
| 1777669470 | 4.44° C | 86% | 1026.6 hPa | - | - | - | - |
| 1777668570 | 4.44° C | 82% | 1026.6 hPa | - | - | - | - |
| 1777667670 | 5.56° C | 78% | 1026.8 hPa | - | - | - | - |
| 1777666769 | 5.56° C | 75% | 1026.5 hPa | - | - | - | - |
| 1777664969 | 6.67° C | 71% | 1026.4 hPa | - | - | - | - |
| 1777663169 | 7.78° C | 66% | 1026.5 hPa | - | - | - | - |
| 1777661369 | 9.44° C | 61% | 1026.3 hPa | - | - | - | - |
| 1777659569 | 10° C | 59% | 1026.1 hPa | - | - | - | - |
* Rain since midnight (hover to see other rain measurements)
** Current wind speed in m/s (hover to see current wind gust speed)